Time;durP1;ratioP1;P1;durP2;ratioP2;P2;SDS_P1;SDS_P2;PMS_P1;PMS_P2;Temp;Humidity;BMP_temperature;BMP_pressure;BME280_temperature;BME280_humidity;BME280_pressure;Samples;Min_cycle;Max_cycle;Signal;HPM_P1;HPM_P2
2023/09/16 00:00:06;;;;;;;2.00;1.80;;;21.70;90.80;;;;;;5015622;28;20287;-90
2023/09/16 00:02:32;;;;;;;2.10;1.90;;;21.70;90.80;;;;;;5005611;28;20188;-90
2023/09/16 00:05:25;;;;;;;2.60;2.03;;;21.70;90.90;;;;;;5015696;28;20190;-90
2023/09/16 00:07:51;;;;;;;2.70;2.13;;;21.70;91.10;;;;;;4995261;28;20181;-90
2023/09/16 00:10:18;;;;;;;2.97;2.10;;;21.70;90.80;;;;;;5012843;28;20180;-89
2023/09/16 00:12:46;;;;;;;2.40;2.20;;;21.70;90.80;;;;;;5008130;28;20217;-90
2023/09/16 00:15:12;;;;;;;2.23;2.03;;;21.70;90.80;;;;;;4997685;28;20264;-90
2023/09/16 00:17:37;;;;;;;2.27;1.87;;;21.70;90.80;;;;;;5017313;28;20204;-89
2023/09/16 00:20:14;;;;;;;2.10;1.90;;;21.70;90.80;;;;;;5036760;28;20193;-89
2023/09/16 00:22:41;;;;;;;3.67;2.00;;;21.60;90.80;;;;;;5007028;28;20176;-89
2023/09/16 00:25:08;;;;;;;2.20;2.00;;;21.60;90.80;;;;;;5052753;28;20571;-89
2023/09/16 00:27:36;;;;;;;2.57;2.17;;;21.60;90.80;;;;;;5003613;28;20182;-89
2023/09/16 00:30:03;;;;;;;2.70;2.07;;;21.60;90.80;;;;;;5016528;28;20247;-90
2023/09/16 00:32:29;;;;;;;2.10;1.90;;;21.60;90.80;;;;;;5004472;28;20209;-89
2023/09/16 00:34:57;;;;;;;2.30;2.10;;;21.60;90.80;;;;;;5014779;28;20175;-90
2023/09/16 00:37:23;;;;;;;2.77;1.87;;;21.60;90.80;;;;;;5005715;28;20185;-89
2023/09/16 00:39:48;;;;;;;2.77;2.20;;;21.60;90.80;;;;;;5012809;28;20180;-89
2023/09/16 00:42:15;;;;;;;2.53;2.13;;;21.60;90.80;;;;;;5005636;28;20187;-89
2023/09/16 00:44:42;;;;;;;2.40;2.00;;;21.60;90.80;;;;;;5018076;28;20186;-89
2023/09/16 00:47:08;;;;;;;2.80;2.20;;;21.60;90.80;;;;;;4999364;28;20173;-89
2023/09/16 00:49:34;;;;;;;2.77;2.20;;;21.60;90.80;;;;;;5004337;28;20178;-90
2023/09/16 00:52:00;;;;;;;2.27;2.00;;;21.60;90.80;;;;;;4998694;28;20181;-89
2023/09/16 00:54:26;;;;;;;1.80;1.70;;;21.60;90.80;;;;;;5016233;28;20182;-90
2023/09/16 00:56:54;;;;;;;2.13;1.93;;;21.50;90.70;;;;;;5014266;28;20204;-90
2023/09/16 00:59:22;;;;;;;2.43;2.13;;;21.50;90.70;;;;;;5003657;28;20200;-89
2023/09/16 01:01:51;;;;;;;2.60;2.10;;;21.50;90.70;;;;;;5014075;28;20173;-89
2023/09/16 01:04:21;;;;;;;2.30;2.10;;;21.50;90.80;;;;;;5002220;28;20168;-90
2023/09/16 01:06:50;;;;;;;2.20;2.00;;;21.50;90.70;;;;;;4991987;28;20218;-90
2023/09/16 01:09:17;;;;;;;4.73;2.27;;;21.50;90.70;;;;;;4999690;28;20292;-90
2023/09/16 01:11:43;;;;;;;3.77;2.13;;;21.50;90.70;;;;;;5011316;28;20171;-89
2023/09/16 01:14:12;;;;;;;2.30;2.10;;;21.50;90.70;;;;;;4997966;28;20198;-90
2023/09/16 01:16:46;;;;;;;2.13;1.97;;;21.50;90.70;;;;;;5011582;28;20249;-90
2023/09/16 01:19:15;;;;;;;2.50;2.30;;;21.50;90.70;;;;;;5000276;28;20177;-89
2023/09/16 01:21:42;;;;;;;2.20;2.00;;;21.50;90.70;;;;;;5029053;28;20166;-89
2023/09/16 01:24:20;;;;;;;2.20;2.00;;;21.50;90.70;;;;;;5000617;28;20637;-89
2023/09/16 01:26:47;;;;;;;2.40;1.90;;;21.50;90.80;;;;;;4974148;28;20189;-90
2023/09/16 01:29:13;;;;;;;2.13;1.93;;;21.50;90.70;;;;;;5013415;28;20276;-89
2023/09/16 01:31:40;;;;;;;2.20;2.00;;;21.40;90.70;;;;;;4996997;28;20466;-89
2023/09/16 01:34:29;;;;;;;2.73;2.00;;;21.40;90.70;;;;;;5009383;28;20504;-89
2023/09/16 01:36:58;;;;;;;2.20;1.90;;;21.40;90.70;;;;;;4989417;28;20205;-89
2023/09/16 01:39:25;;;;;;;2.20;1.80;;;21.40;90.70;;;;;;5026087;28;20193;-89
2023/09/16 01:41:57;;;;;;;2.47;2.27;;;21.40;90.70;;;;;;5018810;28;20189;-90
2023/09/16 01:44:25;;;;;;;2.83;2.00;;;21.40;90.70;;;;;;5010041;28;20186;-89
2023/09/16 01:46:55;;;;;;;2.20;2.00;;;21.40;90.70;;;;;;5012610;28;20199;-90
2023/09/16 01:49:21;;;;;;;2.10;1.90;;;21.40;90.70;;;;;;5010706;28;20194;-90
2023/09/16 01:51:47;;;;;;;2.40;2.10;;;21.40;90.70;;;;;;5012446;28;20212;-90
2023/09/16 01:54:12;;;;;;;2.57;2.10;;;21.40;90.70;;;;;;5047532;28;20199;-89
2023/09/16 01:56:38;;;;;;;1.93;1.80;;;21.40;90.70;;;;;;5026154;28;20176;-89
2023/09/16 01:59:04;;;;;;;1.90;1.70;;;21.40;90.70;;;;;;5017068;28;20173;-89
2023/09/16 02:01:29;;;;;;;2.30;2.10;;;21.40;90.70;;;;;;5007196;28;20242;-89
2023/09/16 02:03:55;;;;;;;2.00;1.80;;;21.40;90.80;;;;;;5016851;28;20173;-89
2023/09/16 02:06:21;;;;;;;2.13;1.93;;;21.40;90.70;;;;;;5007463;28;20238;-89
2023/09/16 02:08:47;;;;;;;1.97;1.77;;;21.40;90.70;;;;;;5035631;28;20270;-89
2023/09/16 02:11:12;;;;;;;1.80;1.70;;;21.40;90.70;;;;;;5039308;28;20574;-89
2023/09/16 02:13:38;;;;;;;2.40;2.20;;;21.40;90.70;;;;;;5018147;28;20227;-89
2023/09/16 02:16:04;;;;;;;2.30;2.00;;;21.40;90.70;;;;;;5006394;28;20589;-89
2023/09/16 02:18:30;;;;;;;2.43;2.20;;;21.30;90.70;;;;;;5018943;28;20352;-90
2023/09/16 02:20:56;;;;;;;2.17;1.90;;;21.30;90.60;;;;;;5025513;28;20180;-90
2023/09/16 02:23:22;;;;;;;2.53;2.20;;;21.30;90.70;;;;;;5015672;28;20180;-90
2023/09/16 02:25:48;;;;;;;2.53;2.00;;;21.30;90.70;;;;;;5010111;28;20562;-90
2023/09/16 02:28:14;;;;;;;2.87;2.03;;;21.30;90.70;;;;;;4998679;28;20515;-90
2023/09/16 02:30:39;;;;;;;2.20;2.00;;;21.30;90.70;;;;;;5003048;28;20171;-90
2023/09/16 02:33:05;;;;;;;2.77;2.20;;;21.30;90.70;;;;;;5006171;28;20205;-89
2023/09/16 02:35:33;;;;;;;3.27;2.10;;;21.30;90.70;;;;;;5002918;28;20337;-89
2023/09/16 02:38:02;;;;;;;2.60;2.10;;;21.30;90.70;;;;;;5009127;28;20176;-90
2023/09/16 02:40:28;;;;;;;2.43;2.17;;;21.30;90.70;;;;;;5030921;28;20173;-90
2023/09/16 02:42:54;;;;;;;2.30;2.10;;;21.30;90.70;;;;;;5008322;28;20183;-89
2023/09/16 02:45:20;;;;;;;2.67;2.00;;;21.30;90.70;;;;;;5000004;28;20176;-90
2023/09/16 02:47:45;;;;;;;2.30;1.90;;;21.30;90.70;;;;;;5009556;28;20345;-90
2023/09/16 02:50:11;;;;;;;2.13;1.93;;;21.30;90.70;;;;;;4998695;28;20285;-90
2023/09/16 02:52:37;;;;;;;4.17;1.90;;;21.30;90.70;;;;;;5010274;28;20208;-90
2023/09/16 02:55:03;;;;;;;2.03;1.80;;;21.20;90.70;;;;;;5015333;28;20194;-89
2023/09/16 02:57:28;;;;;;;2.10;1.90;;;21.30;90.70;;;;;;5010878;28;20175;-90
2023/09/16 02:59:54;;;;;;;2.20;2.00;;;21.20;90.70;;;;;;4998591;28;20170;-89
2023/09/16 03:02:21;;;;;;;2.17;1.80;;;21.20;90.70;;;;;;5007591;28;20179;-89
2023/09/16 03:04:46;;;;;;;2.10;1.90;;;21.20;90.70;;;;;;4999279;28;20167;-89
2023/09/16 03:07:12;;;;;;;2.07;1.87;;;21.20;90.70;;;;;;5005288;28;20172;-90
2023/09/16 03:09:37;;;;;;;2.43;2.07;;;21.20;90.70;;;;;;5001156;28;20185;-90
2023/09/16 03:12:04;;;;;;;2.63;2.10;;;21.20;90.60;;;;;;5003059;28;20184;-90
2023/09/16 03:14:29;;;;;;;2.10;1.90;;;21.20;90.60;;;;;;5004103;28;20489;-90
2023/09/16 03:16:55;;;;;;;2.33;1.97;;;21.20;90.60;;;;;;5000190;28;20243;-89
2023/09/16 03:19:21;;;;;;;2.00;1.80;;;21.20;90.70;;;;;;5008348;28;20178;-90
2023/09/16 03:21:48;;;;;;;2.50;2.30;;;21.20;90.70;;;;;;4999900;28;20180;-90
2023/09/16 03:24:13;;;;;;;3.57;1.90;;;21.20;90.90;;;;;;5026858;28;20206;-90
2023/09/16 03:26:39;;;;;;;2.20;2.00;;;21.20;90.70;;;;;;4997966;28;20221;-89
2023/09/16 03:29:05;;;;;;;2.13;1.93;;;21.20;90.70;;;;;;5007264;28;20176;-89
2023/09/16 03:31:31;;;;;;;2.33;1.77;;;21.20;90.70;;;;;;4996673;28;20268;-89
2023/09/16 03:33:57;;;;;;;2.60;2.20;;;21.20;90.70;;;;;;5008109;28;20263;-89
2023/09/16 03:36:23;;;;;;;2.20;2.00;;;21.20;90.70;;;;;;4995375;28;20205;-89
2023/09/16 03:38:50;;;;;;;2.40;2.17;;;21.20;90.70;;;;;;5007630;28;20341;-90
2023/09/16 03:41:17;;;;;;;2.00;1.80;;;21.10;90.70;;;;;;5039827;28;20165;-89
2023/09/16 03:43:44;;;;;;;2.10;1.87;;;21.20;91.00;;;;;;5022902;28;20675;-89
2023/09/16 03:46:10;;;;;;;2.23;2.03;;;21.20;90.60;;;;;;4997642;28;20340;-89
2023/09/16 03:48:35;;;;;;;2.00;1.80;;;21.10;90.60;;;;;;5003392;28;20184;-89
2023/09/16 03:51:06;;;;;;;2.00;1.80;;;21.10;90.60;;;;;;5000356;28;20180;-89
2023/09/16 03:53:33;;;;;;;2.20;2.00;;;21.10;90.70;;;;;;5000694;28;20603;-89
2023/09/16 03:55:59;;;;;;;2.10;1.90;;;21.10;90.70;;;;;;4999964;28;20174;-89
2023/09/16 03:58:25;;;;;;;2.10;1.90;;;21.10;90.70;;;;;;4996472;28;20187;-89
2023/09/16 04:00:50;;;;;;;2.80;2.07;;;21.10;90.70;;;;;;5002356;28;20272;-90
2023/09/16 04:03:17;;;;;;;2.30;2.03;;;21.10;90.70;;;;;;4995943;28;20177;-90
2023/09/16 04:05:42;;;;;;;2.43;2.10;;;21.10;90.70;;;;;;5009181;28;20267;-89
2023/09/16 04:08:08;;;;;;;1.77;1.67;;;21.10;90.70;;;;;;5011686;28;20320;-89
2023/09/16 04:10:34;;;;;;;2.73;2.30;;;21.10;90.70;;;;;;5003903;28;20177;-89
2023/09/16 04:13:00;;;;;;;2.00;1.80;;;21.10;90.70;;;;;;5013890;28;20205;-89
2023/09/16 04:15:34;;;;;;;2.10;1.90;;;21.10;90.70;;;;;;5021352;28;20196;-89
2023/09/16 04:18:02;;;;;;;2.43;1.93;;;21.10;90.70;;;;;;5033285;28;20256;-89
2023/09/16 04:20:28;;;;;;;4.53;1.90;;;21.10;90.70;;;;;;5035395;28;20178;-89
2023/09/16 04:22:54;;;;;;;2.57;2.10;;;21.10;90.70;;;;;;5016230;28;20181;-89
2023/09/16 04:25:19;;;;;;;2.03;1.83;;;21.10;90.70;;;;;;5002106;28;20534;-89
2023/09/16 04:27:45;;;;;;;1.90;1.80;;;21.10;90.70;;;;;;5047225;28;20227;-90
2023/09/16 04:30:11;;;;;;;2.43;2.00;;;21.10;90.70;;;;;;5010500;28;20534;-90
2023/09/16 04:32:53;;;;;;;2.30;2.10;;;21.10;90.70;;;;;;4998373;28;20276;-90
2023/09/16 04:35:20;;;;;;;2.10;1.90;;;21.10;90.70;;;;;;4997816;28;20199;-89
2023/09/16 04:37:45;;;;;;;2.00;1.80;;;21.00;90.70;;;;;;4996496;28;20218;-90
2023/09/16 04:40:11;;;;;;;2.00;1.90;;;21.10;90.70;;;;;;5011068;28;20168;-89
2023/09/16 04:42:38;;;;;;;2.40;1.83;;;21.10;90.70;;;;;;5010216;28;20191;-89
2023/09/16 04:45:11;;;;;;;2.10;1.90;;;21.10;90.70;;;;;;5027414;28;20272;-89
2023/09/16 04:47:37;;;;;;;2.43;1.93;;;21.10;90.70;;;;;;5006022;28;20175;-90
2023/09/16 04:50:14;;;;;;;2.10;1.90;;;21.00;90.70;;;;;;5003030;28;20178;-89
2023/09/16 04:52:58;;;;;;;2.00;1.80;;;21.00;90.70;;;;;;5003264;28;20238;-89
2023/09/16 04:55:25;;;;;;;2.00;1.83;;;21.00;90.70;;;;;;4999916;28;20182;-89
2023/09/16 04:57:51;;;;;;;1.93;1.73;;;21.00;90.70;;;;;;5002575;28;20172;-90
2023/09/16 05:00:20;;;;;;;1.70;1.60;;;21.00;90.70;;;;;;4997802;28;20166;-89
2023/09/16 05:02:48;;;;;;;2.33;2.03;;;21.00;90.70;;;;;;5037699;28;20184;-89
2023/09/16 05:05:17;;;;;;;2.33;2.10;;;21.00;90.70;;;;;;4996892;28;20917;-89
2023/09/16 05:07:43;;;;;;;1.90;1.80;;;21.00;90.70;;;;;;5002859;28;20161;-90
2023/09/16 05:10:14;;;;;;;2.10;1.90;;;21.00;90.70;;;;;;5010658;28;20234;-89
2023/09/16 05:12:40;;;;;;;2.53;2.13;;;21.00;90.70;;;;;;5002024;28;20200;-89
2023/09/16 05:15:36;;;;;;;1.90;1.70;;;21.00;90.70;;;;;;5014549;28;20175;-89
2023/09/16 05:18:02;;;;;;;2.20;2.00;;;21.00;90.70;;;;;;5018997;28;20169;-89
2023/09/16 05:20:28;;;;;;;2.00;1.90;;;21.00;90.70;;;;;;5012924;28;20180;-89
2023/09/16 05:22:54;;;;;;;2.23;2.03;;;21.00;90.70;;;;;;5016900;28;20186;-87
2023/09/16 05:25:19;;;;;;;2.10;1.90;;;21.00;90.70;;;;;;5017676;28;20182;-88
2023/09/16 05:27:45;;;;;;;2.13;1.93;;;21.00;90.70;;;;;;5040897;28;20591;-89
2023/09/16 05:30:11;;;;;;;2.10;1.67;;;21.00;90.70;;;;;;4994990;28;20219;-88
2023/09/16 05:32:37;;;;;;;1.93;1.70;;;20.90;90.70;;;;;;5006493;28;20590;-89
2023/09/16 05:35:03;;;;;;;2.10;1.67;;;20.90;91.00;;;;;;4995656;28;20344;-88
2023/09/16 05:37:28;;;;;;;2.10;1.90;;;20.90;90.70;;;;;;5004513;28;20188;-88
2023/09/16 05:39:56;;;;;;;3.07;1.93;;;20.90;90.70;;;;;;4997166;28;20200;-88
2023/09/16 05:42:22;;;;;;;3.07;2.10;;;20.90;90.80;;;;;;4999360;28;20177;-88
2023/09/16 05:44:47;;;;;;;2.20;2.00;;;20.90;90.70;;;;;;5010602;28;20425;-89
2023/09/16 05:47:14;;;;;;;2.20;1.80;;;20.90;90.70;;;;;;5011383;28;20578;-89
2023/09/16 05:49:40;;;;;;;2.00;1.80;;;20.90;90.70;;;;;;5000542;28;20174;-88
2023/09/16 05:52:06;;;;;;;1.90;1.80;;;20.90;90.70;;;;;;4996968;28;20236;-88
2023/09/16 05:54:34;;;;;;;1.70;1.60;;;20.90;90.80;;;;;;5001662;28;20183;-89
2023/09/16 05:57:00;;;;;;;2.73;1.77;;;20.90;90.80;;;;;;5010728;28;20196;-89
2023/09/16 05:59:27;;;;;;;1.70;1.60;;;20.90;90.80;;;;;;5002104;28;20170;-89
2023/09/16 06:01:53;;;;;;;1.97;1.77;;;20.90;90.80;;;;;;4995164;28;20179;-88
2023/09/16 06:04:19;;;;;;;2.20;2.00;;;20.90;90.80;;;;;;5004594;28;20266;-89
2023/09/16 06:06:46;;;;;;;1.83;1.73;;;20.90;90.90;;;;;;4993430;28;20174;-89
2023/09/16 06:09:13;;;;;;;2.13;1.93;;;20.90;90.90;;;;;;4998672;28;20458;-89
2023/09/16 06:11:38;;;;;;;2.13;1.77;;;20.90;91.00;;;;;;4995848;28;20562;-89
2023/09/16 06:14:05;;;;;;;2.17;1.97;;;20.90;90.90;;;;;;5000263;28;20216;-89
2023/09/16 06:16:31;;;;;;;1.97;1.77;;;20.90;90.80;;;;;;5012493;28;20270;-89
2023/09/16 06:18:58;;;;;;;2.30;2.10;;;21.00;90.80;;;;;;5002501;28;20183;-89
2023/09/16 06:21:24;;;;;;;2.30;2.10;;;21.00;90.80;;;;;;5014456;28;20173;-89
2023/09/16 06:23:50;;;;;;;2.27;2.07;;;21.00;90.80;;;;;;5008497;28;20185;-88
2023/09/16 06:26:15;;;;;;;2.20;2.00;;;21.00;90.80;;;;;;5009682;28;20188;-88
2023/09/16 06:28:42;;;;;;;2.43;2.07;;;21.00;90.70;;;;;;5039705;28;20182;-89
2023/09/16 06:31:07;;;;;;;2.23;2.00;;;21.10;91.00;;;;;;5006682;28;20175;-88
2023/09/16 06:33:33;;;;;;;2.53;1.80;;;21.10;90.80;;;;;;5026955;28;20200;-88
2023/09/16 06:35:59;;;;;;;2.20;2.00;;;21.10;90.70;;;;;;5002525;28;20186;-88
2023/09/16 06:38:25;;;;;;;2.00;1.80;;;21.10;90.70;;;;;;4994791;28;20181;-89
2023/09/16 06:40:51;;;;;;;2.30;2.10;;;21.20;90.70;;;;;;5013010;28;20176;-89
2023/09/16 06:43:16;;;;;;;3.17;1.87;;;21.20;90.60;;;;;;5014297;28;20344;-88
2023/09/16 06:45:43;;;;;;;2.07;1.87;;;21.20;90.60;;;;;;5005170;28;20194;-89
2023/09/16 06:48:08;;;;;;;3.80;2.17;;;21.20;90.50;;;;;;5016540;28;20271;-89
2023/09/16 06:50:34;;;;;;;2.10;1.90;;;21.30;90.50;;;;;;5004560;28;20264;-89
2023/09/16 06:53:00;;;;;;;3.03;2.40;;;21.30;90.40;;;;;;5016937;28;20243;-88
2023/09/16 06:55:26;;;;;;;2.00;1.80;;;21.30;90.60;;;;;;5015547;28;20179;-88
2023/09/16 06:57:52;;;;;;;2.43;2.23;;;21.30;90.30;;;;;;5014042;28;20292;-88
2023/09/16 07:00:20;;;;;;;2.83;2.40;;;21.40;90.50;;;;;;5024463;28;20173;-88
2023/09/16 07:02:46;;;;;;;2.73;2.10;;;21.40;90.60;;;;;;4996572;28;20270;-89
2023/09/16 07:05:12;;;;;;;2.70;2.33;;;21.40;90.40;;;;;;5000649;28;20283;-87
2023/09/16 07:07:37;;;;;;;2.27;2.07;;;21.40;90.70;;;;;;4995217;28;20283;-88
2023/09/16 07:10:04;;;;;;;2.43;2.23;;;21.50;90.70;;;;;;4997801;28;20266;-88
2023/09/16 07:12:31;;;;;;;2.20;2.00;;;21.50;90.90;;;;;;5008263;28;20204;-89
2023/09/16 07:14:58;;;;;;;2.70;2.40;;;21.60;90.90;;;;;;5008534;28;20275;-89
2023/09/16 07:17:25;;;;;;;2.60;2.40;;;21.60;90.90;;;;;;5004756;28;20212;-89
2023/09/16 07:19:51;;;;;;;2.33;2.10;;;21.70;90.80;;;;;;4991921;28;20201;-88
2023/09/16 07:22:18;;;;;;;2.37;2.17;;;21.70;91.00;;;;;;5004077;28;20256;-88
2023/09/16 07:24:44;;;;;;;2.30;2.10;;;21.70;91.00;;;;;;5012176;28;21117;-88
2023/09/16 07:27:10;;;;;;;4.17;2.20;;;21.80;90.90;;;;;;5002737;28;20386;-88
2023/09/16 07:29:35;;;;;;;3.43;2.27;;;21.90;90.90;;;;;;5010560;28;20406;-88
2023/09/16 07:32:02;;;;;;;2.43;2.13;;;21.90;90.80;;;;;;5004697;28;20197;-88
2023/09/16 07:34:28;;;;;;;2.63;2.40;;;22.00;90.70;;;;;;4993065;28;20212;-88
2023/09/16 07:36:53;;;;;;;4.60;2.13;;;22.00;90.60;;;;;;5000574;28;20186;-89
2023/09/16 07:39:19;;;;;;;2.40;2.20;;;22.10;90.60;;;;;;5012158;28;20238;-89
2023/09/16 07:41:45;;;;;;;2.77;2.20;;;22.10;90.50;;;;;;4997616;28;20251;-89
2023/09/16 07:44:11;;;;;;;2.50;2.30;;;22.20;90.50;;;;;;5029677;28;20514;-89
2023/09/16 07:46:36;;;;;;;2.77;2.57;;;22.20;90.30;;;;;;5003978;28;20173;-89
2023/09/16 07:49:02;;;;;;;2.97;2.20;;;22.30;90.40;;;;;;4996252;28;20220;-89
2023/09/16 07:51:31;;;;;;;2.83;2.40;;;22.30;90.50;;;;;;4996159;28;20190;-89
2023/09/16 07:53:57;;;;;;;2.63;2.33;;;22.40;90.60;;;;;;5009430;28;20205;-89
2023/09/16 07:56:24;;;;;;;2.80;2.50;;;22.50;90.40;;;;;;5024202;28;20274;-89
2023/09/16 07:58:49;;;;;;;2.60;2.40;;;22.50;90.50;;;;;;5005006;28;20169;-89
2023/09/16 08:01:15;;;;;;;4.17;2.60;;;22.60;90.40;;;;;;5010724;28;20250;-89
2023/09/16 08:03:42;;;;;;;4.00;2.53;;;22.60;90.60;;;;;;4996748;28;20169;-89
2023/09/16 08:06:08;;;;;;;3.43;2.47;;;22.60;90.70;;;;;;4993452;28;20173;-89
2023/09/16 08:08:34;;;;;;;4.33;2.90;;;22.70;90.60;;;;;;5005444;28;20253;-89
2023/09/16 08:10:59;;;;;;;4.30;2.53;;;22.70;91.80;;;;;;4994803;28;20385;-89
2023/09/16 08:13:25;;;;;;;7.20;3.07;;;22.70;91.50;;;;;;5025941;28;20212;-90
2023/09/16 08:15:51;;;;;;;6.00;3.30;;;22.70;92.10;;;;;;5011947;28;20574;-89
2023/09/16 08:18:16;;;;;;;4.13;3.00;;;22.70;93.20;;;;;;4999565;28;20263;-89
2023/09/16 08:20:42;;;;;;;5.20;3.00;;;22.70;93.30;;;;;;5030971;28;20637;-89
2023/09/16 08:23:09;;;;;;;5.30;3.53;;;22.70;92.70;;;;;;5008897;28;20259;-89
2023/09/16 08:25:35;;;;;;;5.87;2.73;;;22.70;93.10;;;;;;4990376;28;20274;-89
2023/09/16 08:28:01;;;;;;;8.03;3.70;;;22.70;92.50;;;;;;4998602;28;20169;-90
2023/09/16 08:30:26;;;;;;;8.63;3.37;;;22.80;94.30;;;;;;4993207;28;20587;-89
2023/09/16 08:32:55;;;;;;;8.17;3.63;;;22.90;94.80;;;;;;4998603;28;20197;-89
2023/09/16 08:35:25;;;;;;;9.43;4.00;;;23.00;94.80;;;;;;5029197;28;20251;-89
2023/09/16 08:37:51;;;;;;;9.50;3.60;;;23.30;94.30;;;;;;4998027;28;20176;-88
2023/09/16 08:40:18;;;;;;;6.10;3.90;;;23.60;93.40;;;;;;5033770;28;20217;-88
2023/09/16 08:42:56;;;;;;;9.47;3.77;;;23.80;92.30;;;;;;5009205;28;20231;-88
2023/09/16 08:45:49;;;;;;;9.83;3.80;;;23.80;92.60;;;;;;5002057;28;20276;-88
2023/09/16 08:48:21;;;;;;;5.57;3.67;;;24.00;92.40;;;;;;5002904;28;20169;-89
2023/09/16 08:50:51;;;;;;;7.30;3.80;;;24.10;91.90;;;;;;5001709;28;20184;-89
2023/09/16 08:53:19;;;;;;;8.85;3.60;;;24.20;91.60;;;;;;5006786;28;20478;-89
2023/09/16 08:55:45;;;;;;;8.93;3.78;;;24.20;91.00;;;;;;4999746;28;20315;-89
2023/09/16 08:58:12;;;;;;;6.88;3.58;;;24.20;91.90;;;;;;4993815;28;20169;-89
2023/09/16 09:00:38;;;;;;;6.78;4.00;;;24.20;91.90;;;;;;4997601;28;20462;-89
2023/09/16 09:03:05;;;;;;;7.35;3.83;;;24.10;91.70;;;;;;5024597;28;20575;-89
2023/09/16 09:05:33;;;;;;;10.52;3.85;;;24.20;91.50;;;;;;4999420;28;20177;-89
2023/09/16 09:07:59;;;;;;;7.60;3.90;;;24.20;91.50;;;;;;5011134;28;20180;-88
2023/09/16 09:10:25;;;;;;;5.82;3.72;;;24.30;91.40;;;;;;5014985;28;20338;-89
2023/09/16 09:12:51;;;;;;;6.35;3.72;;;24.40;91.20;;;;;;4991554;28;20259;-89
2023/09/16 09:15:17;;;;;;;6.47;3.33;;;24.40;91.00;;;;;;5003205;28;20242;-89
2023/09/16 09:17:45;;;;;;;6.43;3.67;;;24.30;90.90;;;;;;5008756;28;20231;-88
2023/09/16 09:20:29;;;;;;;3.92;3.33;;;24.40;91.40;;;;;;5002683;28;20173;-89
2023/09/16 09:22:56;;;;;;;5.82;3.88;;;24.30;91.50;;;;;;4990628;28;20457;-89
2023/09/16 09:25:23;;;;;;;5.53;3.60;;;24.30;91.40;;;;;;4996047;28;20177;-89
2023/09/16 09:27:50;;;;;;;4.40;3.35;;;24.30;91.90;;;;;;4991897;28;20182;-89
2023/09/16 09:30:19;;;;;;;5.82;3.60;;;24.30;91.70;;;;;;4991477;28;20192;-89
2023/09/16 09:32:45;;;;;;;7.50;3.80;;;24.20;91.90;;;;;;5007850;28;20232;-89
2023/09/16 09:35:11;;;;;;;5.38;3.40;;;24.20;92.50;;;;;;5003473;28;20255;-89
2023/09/16 09:37:38;;;;;;;5.10;3.70;;;24.20;92.40;;;;;;4992391;28;20523;-88
2023/09/16 09:40:11;;;;;;;6.47;3.38;;;24.10;92.50;;;;;;4992165;28;20570;-89
2023/09/16 09:42:48;;;;;;;5.15;3.63;;;24.10;92.80;;;;;;5021663;28;20169;-89
2023/09/16 09:45:16;;;;;;;4.38;3.38;;;24.10;92.90;;;;;;5003711;28;20272;-89
2023/09/16 09:47:45;;;;;;;4.43;3.75;;;24.20;93.00;;;;;;5014307;28;20599;-89
2023/09/16 09:50:14;;;;;;;4.15;3.42;;;24.20;92.70;;;;;;4993534;28;20176;-89
2023/09/16 09:52:45;;;;;;;5.68;3.60;;;24.30;92.30;;;;;;5007738;28;20205;-89
2023/09/16 09:55:11;;;;;;;3.83;3.05;;;24.40;92.50;;;;;;5018387;28;20169;-88
2023/09/16 09:57:37;;;;;;;8.07;3.28;;;24.40;92.50;;;;;;5018844;28;20169;-88
2023/09/16 10:00:04;;;;;;;11.35;4.20;;;24.40;92.50;;;;;;5024401;28;20193;-89
2023/09/16 10:02:31;;;;;;;9.27;3.85;;;24.40;93.20;;;;;;4999881;28;20176;-88
2023/09/16 10:05:05;;;;;;;11.38;3.88;;;24.30;92.70;;;;;;5035224;28;20169;-89
2023/09/16 10:07:31;;;;;;;9.40;3.80;;;24.40;92.50;;;;;;5003961;28;20185;-89
2023/09/16 10:09:58;;;;;;;10.07;3.50;;;24.40;92.20;;;;;;5009339;28;20265;-89
2023/09/16 10:12:24;;;;;;;8.23;3.78;;;24.40;92.40;;;;;;5003975;28;20178;-88
2023/09/16 10:14:53;;;;;;;7.25;3.45;;;24.50;92.70;;;;;;4990620;28;20170;-89
2023/09/16 10:17:21;;;;;;;7.55;3.95;;;24.50;92.00;;;;;;5010541;28;20482;-88
2023/09/16 10:19:47;;;;;;;6.60;3.42;;;24.50;91.80;;;;;;4996576;28;20177;-89
2023/09/16 10:22:14;;;;;;;4.35;3.30;;;24.60;91.80;;;;;;4995454;28;20426;-89
2023/09/16 10:24:41;;;;;;;5.20;3.30;;;24.60;91.50;;;;;;5029863;28;20459;-89
2023/09/16 10:27:27;;;;;;;6.63;3.45;;;24.60;91.30;;;;;;5001947;28;20170;-89
2023/09/16 10:29:55;;;;;;;4.70;3.40;;;24.60;91.30;;;;;;4971797;28;20170;-89
2023/09/16 10:32:21;;;;;;;4.68;3.40;;;24.60;91.30;;;;;;5013816;28;20225;-90
2023/09/16 10:34:48;;;;;;;3.72;2.70;;;24.50;91.20;;;;;;4994130;28;20251;-89
2023/09/16 10:37:16;;;;;;;8.10;3.50;;;24.50;91.40;;;;;;5000630;28;20181;-89
2023/09/16 10:39:45;;;;;;;5.03;3.10;;;24.50;91.70;;;;;;4995204;28;20170;-89
2023/09/16 10:42:16;;;;;;;4.78;3.00;;;24.40;91.60;;;;;;5003869;28;20418;-88
2023/09/16 10:44:41;;;;;;;6.38;3.45;;;24.40;91.60;;;;;;5005414;28;20245;-88
2023/09/16 10:47:09;;;;;;;7.15;3.67;;;24.40;91.60;;;;;;5022428;28;20265;-89
2023/09/16 10:49:35;;;;;;;4.88;3.42;;;24.40;91.60;;;;;;4999875;28;20406;-89
2023/09/16 10:52:04;;;;;;;5.65;3.03;;;24.40;91.70;;;;;;4993855;28;20169;-89
2023/09/16 10:54:41;;;;;;;5.53;3.10;;;24.40;91.80;;;;;;4999829;28;20193;-89
2023/09/16 10:57:16;;;;;;;4.13;3.10;;;24.40;91.80;;;;;;4992483;28;20166;-89
2023/09/16 10:59:45;;;;;;;5.95;3.30;;;24.40;91.80;;;;;;4999035;28;20255;-88
2023/09/16 11:02:22;;;;;;;3.67;2.97;;;24.40;91.80;;;;;;4989832;28;20190;-88
2023/09/16 11:04:47;;;;;;;3.83;3.10;;;24.40;91.70;;;;;;4969642;28;20178;-88
2023/09/16 11:07:14;;;;;;;5.35;3.30;;;24.40;91.70;;;;;;4993348;28;20169;-89
2023/09/16 11:09:43;;;;;;;4.80;3.05;;;24.50;92.00;;;;;;4991165;28;20170;-88
2023/09/16 11:12:10;;;;;;;3.90;3.20;;;24.50;91.70;;;;;;4992581;28;20173;-89
2023/09/16 11:14:36;;;;;;;4.90;3.30;;;24.50;91.90;;;;;;5001244;28;20201;-89
2023/09/16 11:17:14;;;;;;;3.67;2.83;;;24.50;92.10;;;;;;4991240;28;20174;-89
2023/09/16 11:19:41;;;;;;;3.40;2.97;;;24.50;91.90;;;;;;4994805;28;20367;-88
2023/09/16 11:22:08;;;;;;;4.00;3.37;;;24.50;92.10;;;;;;5010077;28;20465;-89
2023/09/16 11:24:35;;;;;;;4.40;3.10;;;24.50;92.10;;;;;;5035844;28;20601;-89
2023/09/16 11:27:01;;;;;;;3.70;3.20;;;24.50;92.20;;;;;;5008067;28;20625;-89
2023/09/16 11:29:28;;;;;;;4.13;3.17;;;24.60;92.40;;;;;;5001439;28;20173;-89
2023/09/16 11:31:55;;;;;;;5.07;3.30;;;24.60;92.40;;;;;;4988623;28;20639;-89
2023/09/16 11:34:26;;;;;;;3.10;2.80;;;24.60;92.80;;;;;;4994491;28;20204;-88
2023/09/16 11:36:54;;;;;;;3.77;2.90;;;24.60;92.70;;;;;;5009346;28;20192;-89
2023/09/16 11:39:40;;;;;;;3.20;2.90;;;24.60;92.60;;;;;;5032676;28;20177;-88
2023/09/16 11:42:08;;;;;;;3.87;2.93;;;24.60;93.10;;;;;;4989121;28;20236;-88
2023/09/16 11:44:37;;;;;;;4.83;3.30;;;24.60;92.80;;;;;;4994063;28;20601;-88
2023/09/16 11:47:04;;;;;;;3.17;2.87;;;24.60;92.90;;;;;;4989459;28;20265;-88
2023/09/16 11:49:34;;;;;;;3.90;3.03;;;24.60;92.90;;;;;;4995893;28;20169;-88
2023/09/16 11:52:00;;;;;;;5.40;2.90;;;24.60;92.90;;;;;;4994847;28;20243;-88
2023/09/16 11:54:26;;;;;;;3.13;2.83;;;24.70;93.30;;;;;;4993422;28;20601;-89
2023/09/16 11:56:53;;;;;;;3.60;2.87;;;24.70;93.40;;;;;;4994829;28;20167;-89
2023/09/16 11:59:19;;;;;;;3.33;3.03;;;24.70;93.40;;;;;;4989011;28;20247;-89
2023/09/16 12:01:45;;;;;;;3.37;3.07;;;24.70;93.60;;;;;;4997667;28;20170;-89
2023/09/16 12:04:11;;;;;;;3.33;3.03;;;24.70;93.70;;;;;;4989533;28;20174;-88
2023/09/16 12:06:38;;;;;;;3.40;3.00;;;24.70;93.80;;;;;;4998848;28;20178;-89
2023/09/16 12:09:07;;;;;;;3.63;3.27;;;24.70;93.80;;;;;;4989440;28;20570;-88
2023/09/16 12:11:34;;;;;;;3.53;3.23;;;24.70;93.60;;;;;;5000202;28;20536;-88
2023/09/16 12:14:02;;;;;;;3.57;3.27;;;24.70;93.60;;;;;;4986983;28;20287;-89
2023/09/16 12:16:28;;;;;;;3.63;3.13;;;24.70;93.70;;;;;;4978482;28;20173;-88
2023/09/16 12:18:54;;;;;;;3.43;3.00;;;24.80;93.80;;;;;;5007462;28;20188;-88
2023/09/16 12:21:19;;;;;;;3.87;3.10;;;24.70;93.90;;;;;;5012703;28;20567;-88
2023/09/16 12:23:47;;;;;;;3.37;3.03;;;24.80;93.90;;;;;;5006407;28;20586;-87
2023/09/16 12:26:13;;;;;;;5.00;3.40;;;24.80;94.10;;;;;;4996120;28;20505;-88
2023/09/16 12:28:39;;;;;;;4.07;3.30;;;24.80;94.20;;;;;;5005721;28;20532;-88
2023/09/16 12:31:10;;;;;;;3.27;2.90;;;24.80;94.20;;;;;;4998407;28;20174;-88
2023/09/16 12:33:48;;;;;;;3.63;3.10;;;24.80;94.20;;;;;;5003831;28;20578;-88
2023/09/16 12:36:19;;;;;;;3.50;3.20;;;24.80;94.20;;;;;;4998259;28;20276;-88
2023/09/16 12:38:46;;;;;;;3.23;2.93;;;24.80;94.40;;;;;;5003614;28;20169;-88
2023/09/16 12:41:13;;;;;;;3.73;3.17;;;24.80;94.40;;;;;;5001260;28;20165;-88
2023/09/16 12:43:39;;;;;;;3.53;3.23;;;24.80;94.50;;;;;;4991036;28;20174;-89
2023/09/16 12:46:06;;;;;;;3.03;2.83;;;24.80;94.40;;;;;;4992174;28;20443;-89